sensor_id;sensor_type;location;lat;lon;timestamp;pressure;altitude;pressure_sealevel;temperature;humidity
23953;BME280;12163;49.316;6.092;2023-03-25T00:01:06;98632.72;;;9.92;75.47
23953;BME280;12163;49.316;6.092;2023-03-25T00:03:35;98617.16;;;9.89;75.65
23953;BME280;12163;49.316;6.092;2023-03-25T00:06:08;98621.75;;;9.88;75.42
23953;BME280;12163;49.316;6.092;2023-03-25T00:08:36;98625.53;;;9.87;75.42
23953;BME280;12163;49.316;6.092;2023-03-25T00:11:04;98631.22;;;9.86;75.34
23953;BME280;12163;49.316;6.092;2023-03-25T00:13:32;98625.66;;;9.82;74.62
23953;BME280;12163;49.316;6.092;2023-03-25T00:16:00;98622.16;;;9.82;74.53
23953;BME280;12163;49.316;6.092;2023-03-25T00:18:30;98622.75;;;9.79;74.14
23953;BME280;12163;49.316;6.092;2023-03-25T00:21:01;98629.53;;;9.76;74.08
23953;BME280;12163;49.316;6.092;2023-03-25T00:23:30;98634.91;;;9.76;74.20
23953;BME280;12163;49.316;6.092;2023-03-25T00:25:57;98645.22;;;9.74;74.26
23953;BME280;12163;49.316;6.092;2023-03-25T00:28:28;98636.03;;;9.75;74.20
23953;BME280;12163;49.316;6.092;2023-03-25T00:31:01;98651.41;;;9.75;74.38
23953;BME280;12163;49.316;6.092;2023-03-25T00:33:28;98641.03;;;9.68;73.69
23953;BME280;12163;49.316;6.092;2023-03-25T00:35:54;98652.31;;;9.70;73.93
23953;BME280;12163;49.316;6.092;2023-03-25T00:38:29;98657.69;;;9.70;73.67
23953;BME280;12163;49.316;6.092;2023-03-25T00:43:43;98659.28;;;9.71;73.58
23953;BME280;12163;49.316;6.092;2023-03-25T00:46:10;98659.28;;;9.71;73.39
23953;BME280;12163;49.316;6.092;2023-03-25T00:48:37;98676.16;;;9.77;72.99
23953;BME280;12163;49.316;6.092;2023-03-25T00:51:04;98659.78;;;9.73;73.26
23953;BME280;12163;49.316;6.092;2023-03-25T00:53:36;98651.69;;;9.73;73.32
23953;BME280;12163;49.316;6.092;2023-03-25T00:56:03;98666.88;;;9.69;73.40
23953;BME280;12163;49.316;6.092;2023-03-25T00:58:30;98646.41;;;9.68;73.32
23953;BME280;12163;49.316;6.092;2023-03-25T01:00:56;98662.69;;;9.63;73.40
23953;BME280;12163;49.316;6.092;2023-03-25T01:03:24;98661.09;;;9.62;73.45
23953;BME280;12163;49.316;6.092;2023-03-25T01:05:51;98659.50;;;9.61;73.78
23953;BME280;12163;49.316;6.092;2023-03-25T01:08:20;98667.59;;;9.61;73.53
23953;BME280;12163;49.316;6.092;2023-03-25T01:10:52;98663.28;;;9.60;73.55
23953;BME280;12163;49.316;6.092;2023-03-25T01:13:20;98657.69;;;9.57;73.77
23953;BME280;12163;49.316;6.092;2023-03-25T01:15:47;98659.91;;;9.55;73.94
23953;BME280;12163;49.316;6.092;2023-03-25T01:18:14;98666.09;;;9.55;73.84
23953;BME280;12163;49.316;6.092;2023-03-25T01:20:41;98670.06;;;9.58;73.62
23953;BME280;12163;49.316;6.092;2023-03-25T01:23:08;98665.00;;;9.56;73.65
23953;BME280;12163;49.316;6.092;2023-03-25T01:25:36;98685.44;;;9.57;73.61
23953;BME280;12163;49.316;6.092;2023-03-25T01:28:03;98683.03;;;9.56;73.75
23953;BME280;12163;49.316;6.092;2023-03-25T01:30:30;98676.53;;;9.57;73.36
23953;BME280;12163;49.316;6.092;2023-03-25T01:32:57;98649.94;;;9.55;73.63
23953;BME280;12163;49.316;6.092;2023-03-25T01:35:23;98664.47;;;9.54;73.84
23953;BME280;12163;49.316;6.092;2023-03-25T01:37:50;98666.88;;;9.56;73.26
23953;BME280;12163;49.316;6.092;2023-03-25T01:40:22;98658.59;;;9.52;73.64
23953;BME280;12163;49.316;6.092;2023-03-25T01:42:49;98664.56;;;9.49;73.52
23953;BME280;12163;49.316;6.092;2023-03-25T01:45:26;98656.50;;;9.49;73.48
23953;BME280;12163;49.316;6.092;2023-03-25T01:48:01;98668.84;;;9.50;73.29
23953;BME280;12163;49.316;6.092;2023-03-25T01:50:30;98663.47;;;9.50;73.43
23953;BME280;12163;49.316;6.092;2023-03-25T01:52:59;98665.88;;;9.52;73.50
23953;BME280;12163;49.316;6.092;2023-03-25T01:55:28;98668.25;;;9.53;73.47
23953;BME280;12163;49.316;6.092;2023-03-25T01:57:57;98655.91;;;9.52;73.56
23953;BME280;12163;49.316;6.092;2023-03-25T02:00:24;98677.44;;;9.52;73.26
23953;BME280;12163;49.316;6.092;2023-03-25T02:02:53;98661.88;;;9.49;73.41
23953;BME280;12163;49.316;6.092;2023-03-25T02:08:03;98669.56;;;9.42;73.55
23953;BME280;12163;49.316;6.092;2023-03-25T02:10:31;98661.50;;;9.42;73.84
23953;BME280;12163;49.316;6.092;2023-03-25T02:12:58;98662.28;;;9.43;73.84
23953;BME280;12163;49.316;6.092;2023-03-25T02:15:29;98662.00;;;9.44;73.80
23953;BME280;12163;49.316;6.092;2023-03-25T02:29:04;98662.59;;;9.41;74.39
23953;BME280;12163;49.316;6.092;2023-03-25T02:42:54;98647.81;;;9.39;75.10
23953;BME280;12163;49.316;6.092;2023-03-25T02:45:29;98651.94;;;9.36;75.10
23953;BME280;12163;49.316;6.092;2023-03-25T02:48:00;98655.13;;;9.38;75.42
23953;BME280;12163;49.316;6.092;2023-03-25T02:50:44;98644.94;;;9.35;75.57
23953;BME280;12163;49.316;6.092;2023-03-25T02:53:18;98657.31;;;9.36;75.77
23953;BME280;12163;49.316;6.092;2023-03-25T02:55:48;98656.50;;;9.36;76.27
23953;BME280;12163;49.316;6.092;2023-03-25T02:58:18;98654.41;;;9.33;76.84
23953;BME280;12163;49.316;6.092;2023-03-25T03:00:48;98662.88;;;9.26;77.30
23953;BME280;12163;49.316;6.092;2023-03-25T03:03:15;98649.72;;;9.25;77.59
23953;BME280;12163;49.316;6.092;2023-03-25T03:05:44;98659.78;;;9.19;78.03
23953;BME280;12163;49.316;6.092;2023-03-25T03:14:12;98644.50;;;9.01;78.66
23953;BME280;12163;49.316;6.092;2023-03-25T03:17:19;98647.50;;;9.00;78.30
23953;BME280;12163;49.316;6.092;2023-03-25T03:19:56;98634.31;;;8.98;78.40
23953;BME280;12163;49.316;6.092;2023-03-25T03:22:48;98635.72;;;8.96;78.69
23953;BME280;12163;49.316;6.092;2023-03-25T03:25:35;98630.63;;;8.94;78.85
23953;BME280;12163;49.316;6.092;2023-03-25T03:30:47;98652.25;;;8.89;78.68
23953;BME280;12163;49.316;6.092;2023-03-25T03:33:23;98638.09;;;8.84;78.47
23953;BME280;12163;49.316;6.092;2023-03-25T03:36:12;98658.28;;;8.81;78.51
23953;BME280;12163;49.316;6.092;2023-03-25T03:38:48;98666.88;;;8.83;78.64
23953;BME280;12163;49.316;6.092;2023-03-25T03:41:20;98656.59;;;8.85;78.25
23953;BME280;12163;49.316;6.092;2023-03-25T03:43:57;98665.19;;;8.87;78.57
23953;BME280;12163;49.316;6.092;2023-03-25T03:46:32;98661.94;;;8.90;78.07
23953;BME280;12163;49.316;6.092;2023-03-25T03:49:02;98666.41;;;8.95;77.65
23953;BME280;12163;49.316;6.092;2023-03-25T03:51:36;98663.72;;;8.95;77.80
23953;BME280;12163;49.316;6.092;2023-03-25T03:56:52;98676.78;;;9.01;77.70
23953;BME280;12163;49.316;6.092;2023-03-25T03:59:43;98671.41;;;9.01;77.53
23953;BME280;12163;49.316;6.092;2023-03-25T04:02:22;98678.00;;;9.09;77.30
23953;BME280;12163;49.316;6.092;2023-03-25T04:04:53;98678.22;;;9.12;76.86
23953;BME280;12163;49.316;6.092;2023-03-25T04:07:28;98684.16;;;9.09;76.85
23953;BME280;12163;49.316;6.092;2023-03-25T04:10:09;98645.50;;;9.05;77.12
23953;BME280;12163;49.316;6.092;2023-03-25T04:12:51;98650.88;;;9.05;76.84
23953;BME280;12163;49.316;6.092;2023-03-25T04:15:19;98655.75;;;9.03;76.61
23953;BME280;12163;49.316;6.092;2023-03-25T04:17:46;98657.72;;;8.98;76.88
23953;BME280;12163;49.316;6.092;2023-03-25T04:20:15;98651.06;;;8.95;76.89
23953;BME280;12163;49.316;6.092;2023-03-25T04:22:44;98657.03;;;8.92;77.13
23953;BME280;12163;49.316;6.092;2023-03-25T04:25:12;98663.22;;;8.93;77.22
23953;BME280;12163;49.316;6.092;2023-03-25T04:27:39;98667.81;;;8.92;77.26
23953;BME280;12163;49.316;6.092;2023-03-25T04:30:07;98672.38;;;8.92;77.07
23953;BME280;12163;49.316;6.092;2023-03-25T04:32:34;98673.19;;;8.92;76.76
23953;BME280;12163;49.316;6.092;2023-03-25T04:35:00;98682.34;;;8.91;76.78
23953;BME280;12163;49.316;6.092;2023-03-25T04:37:27;98690.69;;;8.90;76.82
23953;BME280;12163;49.316;6.092;2023-03-25T04:39:54;98688.81;;;8.90;76.39
23953;BME280;12163;49.316;6.092;2023-03-25T04:42:25;98683.94;;;8.92;76.68
23953;BME280;12163;49.316;6.092;2023-03-25T04:44:58;98697.41;;;8.92;76.58
23953;BME280;12163;49.316;6.092;2023-03-25T04:47:25;98703.28;;;8.94;76.45
23953;BME280;12163;49.316;6.092;2023-03-25T04:49:52;98706.47;;;8.96;76.20
23953;BME280;12163;49.316;6.092;2023-03-25T04:52:19;98702.69;;;8.97;76.05
23953;BME280;12163;49.316;6.092;2023-03-25T04:54:46;98704.06;;;8.95;76.21
23953;BME280;12163;49.316;6.092;2023-03-25T04:57:13;98702.47;;;8.94;76.05
23953;BME280;12163;49.316;6.092;2023-03-25T04:59:40;98709.44;;;8.95;76.11
23953;BME280;12163;49.316;6.092;2023-03-25T05:02:07;98699.50;;;8.95;76.17
23953;BME280;12163;49.316;6.092;2023-03-25T05:04:39;98701.69;;;8.93;76.14
23953;BME280;12163;49.316;6.092;2023-03-25T05:07:13;98711.03;;;8.96;76.11
23953;BME280;12163;49.316;6.092;2023-03-25T05:09:41;98712.84;;;9.00;75.81
23953;BME280;12163;49.316;6.092;2023-03-25T05:12:07;98696.44;;;9.02;76.11
23953;BME280;12163;49.316;6.092;2023-03-25T05:14:36;98713.06;;;9.04;76.02
23953;BME280;12163;49.316;6.092;2023-03-25T05:17:03;98709.78;;;9.07;75.95
23953;BME280;12163;49.316;6.092;2023-03-25T05:19:29;98700.31;;;9.09;76.02
23953;BME280;12163;49.316;6.092;2023-03-25T05:22:00;98702.72;;;9.11;75.88
23953;BME280;12163;49.316;6.092;2023-03-25T05:24:28;98698.16;;;9.11;75.78
23953;BME280;12163;49.316;6.092;2023-03-25T05:26:55;98716.69;;;9.13;75.74
23953;BME280;12163;49.316;6.092;2023-03-25T05:29:22;98710.50;;;9.12;75.94
23953;BME280;12163;49.316;6.092;2023-03-25T05:31:49;98702.13;;;9.14;75.98
23953;BME280;12163;49.316;6.092;2023-03-25T05:34:15;98706.72;;;9.13;76.13
23953;BME280;12163;49.316;6.092;2023-03-25T05:36:43;98702.94;;;9.14;76.25
23953;BME280;12163;49.316;6.092;2023-03-25T05:39:09;98703.72;;;9.15;76.25
23953;BME280;12163;49.316;6.092;2023-03-25T05:41:36;98715.19;;;9.20;75.99
23953;BME280;12163;49.316;6.092;2023-03-25T05:44:08;98706.75;;;9.27;76.00
23953;BME280;12163;49.316;6.092;2023-03-25T05:46:35;98704.56;;;9.29;75.96
23953;BME280;12163;49.316;6.092;2023-03-25T05:49:02;98705.34;;;9.29;76.20
23953;BME280;12163;49.316;6.092;2023-03-25T05:51:32;98696.16;;;9.30;76.24
23953;BME280;12163;49.316;6.092;2023-03-25T05:54:10;98707.38;;;9.37;76.53
23953;BME280;12163;49.316;6.092;2023-03-25T05:56:37;98705.97;;;9.53;76.46
23953;BME280;12163;49.316;6.092;2023-03-25T05:59:04;98706.59;;;9.91;77.22
23953;BME280;12163;49.316;6.092;2023-03-25T06:01:31;98702.19;;;10.08;75.65
23953;BME280;12163;49.316;6.092;2023-03-25T06:04:03;98708.78;;;10.51;76.06
23953;BME280;12163;49.316;6.092;2023-03-25T06:06:31;98698.72;;;10.87;75.09
23953;BME280;12163;49.316;6.092;2023-03-25T06:09:00;98702.31;;;10.96;72.32
23953;BME280;12163;49.316;6.092;2023-03-25T06:11:27;98706.81;;;10.87;72.81
23953;BME280;12163;49.316;6.092;2023-03-25T06:13:55;98684.97;;;11.19;73.30
23953;BME280;12163;49.316;6.092;2023-03-25T06:16:23;98674.59;;;11.43;70.90
23953;BME280;12163;49.316;6.092;2023-03-25T06:18:55;98685.81;;;11.58;70.03
23953;BME280;12163;49.316;6.092;2023-03-25T06:21:30;98685.75;;;11.50;70.32
23953;BME280;12163;49.316;6.092;2023-03-25T06:24:00;98681.56;;;11.66;68.84
23953;BME280;12163;49.316;6.092;2023-03-25T06:26:27;98668.34;;;11.56;69.14
23953;BME280;12163;49.316;6.092;2023-03-25T06:28:54;98679.56;;;11.49;69.67
23953;BME280;12163;49.316;6.092;2023-03-25T06:31:23;98670.50;;;11.54;69.79
23953;BME280;12163;49.316;6.092;2023-03-25T06:33:54;98671.28;;;11.46;69.29
23953;BME280;12163;49.316;6.092;2023-03-25T06:36:22;98678.81;;;11.27;69.84
23953;BME280;12163;49.316;6.092;2023-03-25T06:38:51;98685.47;;;11.21;70.17
23953;BME280;12163;49.316;6.092;2023-03-25T06:41:18;98678.72;;;11.10;69.27
23953;BME280;12163;49.316;6.092;2023-03-25T06:43:47;98678.38;;;11.03;70.07
23953;BME280;12163;49.316;6.092;2023-03-25T06:46:14;98671.28;;;11.15;70.33
23953;BME280;12163;49.316;6.092;2023-03-25T06:48:41;98671.69;;;11.31;69.66
23953;BME280;12163;49.316;6.092;2023-03-25T06:51:07;98683.88;;;11.20;70.41
23953;BME280;12163;49.316;6.092;2023-03-25T06:53:34;98682.41;;;11.14;69.64
23953;BME280;12163;49.316;6.092;2023-03-25T06:56:01;98694.00;;;11.14;69.80
23953;BME280;12163;49.316;6.092;2023-03-25T06:58:27;98699.72;;;11.13;69.47
23953;BME280;12163;49.316;6.092;2023-03-25T07:01:01;98699.75;;;10.91;70.19
23953;BME280;12163;49.316;6.092;2023-03-25T07:03:34;98690.16;;;10.85;70.16
23953;BME280;12163;49.316;6.092;2023-03-25T07:06:02;98687.84;;;10.92;70.19
23953;BME280;12163;49.316;6.092;2023-03-25T07:08:28;98682.78;;;10.99;69.54
23953;BME280;12163;49.316;6.092;2023-03-25T07:11:05;98690.53;;;10.92;69.49
23953;BME280;12163;49.316;6.092;2023-03-25T07:13:35;98694.06;;;11.01;69.56
23953;BME280;12163;49.316;6.092;2023-03-25T07:16:02;98673.63;;;11.08;68.59
23953;BME280;12163;49.316;6.092;2023-03-25T07:18:29;98686.56;;;11.20;69.42
23953;BME280;12163;49.316;6.092;2023-03-25T07:20:56;98672.06;;;11.38;68.71
23953;BME280;12163;49.316;6.092;2023-03-25T07:23:22;98691.16;;;11.50;67.35
23953;BME280;12163;49.316;6.092;2023-03-25T07:25:49;98676.69;;;11.46;68.00
23953;BME280;12163;49.316;6.092;2023-03-25T07:28:17;98687.94;;;11.39;67.37
23953;BME280;12163;49.316;6.092;2023-03-25T07:30:43;98692.50;;;11.30;67.27
23953;BME280;12163;49.316;6.092;2023-03-25T07:33:10;98705.75;;;11.18;67.42
23953;BME280;12163;49.316;6.092;2023-03-25T07:35:37;98684.13;;;11.10;67.85
23953;BME280;12163;49.316;6.092;2023-03-25T07:38:04;98695.44;;;11.12;67.95
23953;BME280;12163;49.316;6.092;2023-03-25T07:40:30;98684.66;;;11.20;68.38
23953;BME280;12163;49.316;6.092;2023-03-25T07:42:57;98697.09;;;11.30;67.92
23953;BME280;12163;49.316;6.092;2023-03-25T07:45:23;98694.75;;;11.37;67.25
23953;BME280;12163;49.316;6.092;2023-03-25T07:47:50;98700.22;;;11.45;67.32
23953;BME280;12163;49.316;6.092;2023-03-25T07:50:19;98693.16;;;11.58;67.63
23953;BME280;12163;49.316;6.092;2023-03-25T07:52:50;98710.47;;;11.57;66.35
23953;BME280;12163;49.316;6.092;2023-03-25T07:55:16;98733.69;;;11.58;66.70
23953;BME280;12163;49.316;6.092;2023-03-25T07:57:43;98702.16;;;11.53;65.68
23953;BME280;12163;49.316;6.092;2023-03-25T08:00:10;98718.34;;;11.53;66.43
23953;BME280;12163;49.316;6.092;2023-03-25T08:02:37;98721.91;;;11.62;66.00
23953;BME280;12163;49.316;6.092;2023-03-25T08:05:05;98723.25;;;11.73;66.69
23953;BME280;12163;49.316;6.092;2023-03-25T08:07:32;98724.22;;;11.77;65.05
23953;BME280;12163;49.316;6.092;2023-03-25T08:09:59;98725.22;;;11.89;64.95
23953;BME280;12163;49.316;6.092;2023-03-25T08:12:25;98725.06;;;11.94;64.49
23953;BME280;12163;49.316;6.092;2023-03-25T08:14:52;98706.91;;;11.86;64.86
23953;BME280;12163;49.316;6.092;2023-03-25T08:17:18;98731.41;;;11.81;65.41
23953;BME280;12163;49.316;6.092;2023-03-25T08:19:45;98725.19;;;11.81;65.37
23953;BME280;12163;49.316;6.092;2023-03-25T08:22:11;98730.91;;;11.79;65.69
23953;BME280;12163;49.316;6.092;2023-03-25T08:24:38;98739.50;;;11.81;64.59
23953;BME280;12163;49.316;6.092;2023-03-25T08:27:05;98743.44;;;11.75;65.22
23953;BME280;12163;49.316;6.092;2023-03-25T08:29:42;98730.06;;;11.71;65.87
23953;BME280;12163;49.316;6.092;2023-03-25T08:32:09;98727.84;;;11.73;65.29
23953;BME280;12163;49.316;6.092;2023-03-25T08:34:36;98735.31;;;11.75;65.10
23953;BME280;12163;49.316;6.092;2023-03-25T08:37:06;98732.28;;;11.69;64.86
23953;BME280;12163;49.316;6.092;2023-03-25T08:39:33;98757.19;;;11.57;65.54
23953;BME280;12163;49.316;6.092;2023-03-25T08:42:06;98776.41;;;11.34;68.38
23953;BME280;12163;49.316;6.092;2023-03-25T08:44:32;98795.44;;;11.07;69.57
23953;BME280;12163;49.316;6.092;2023-03-25T08:46:59;98794.81;;;10.88;69.91
23953;BME280;12163;49.316;6.092;2023-03-25T08:49:26;98795.66;;;10.75;70.44
23953;BME280;12163;49.316;6.092;2023-03-25T08:51:53;98798.56;;;10.65;70.91
23953;BME280;12163;49.316;6.092;2023-03-25T08:54:19;98805.00;;;10.55;71.42
23953;BME280;12163;49.316;6.092;2023-03-25T08:56:46;98800.59;;;10.46;71.99
23953;BME280;12163;49.316;6.092;2023-03-25T08:59:13;98801.50;;;10.41;72.03
23953;BME280;12163;49.316;6.092;2023-03-25T09:01:40;98787.22;;;10.41;72.63
23953;BME280;12163;49.316;6.092;2023-03-25T09:04:09;98795.41;;;10.36;73.43
23953;BME280;12163;49.316;6.092;2023-03-25T09:06:36;98811.09;;;10.34;74.40
23953;BME280;12163;49.316;6.092;2023-03-25T09:09:24;98809.72;;;10.23;73.15
23953;BME280;12163;49.316;6.092;2023-03-25T09:11:51;98817.19;;;9.99;71.67
23953;BME280;12163;49.316;6.092;2023-03-25T09:14:17;98819.75;;;9.77;71.33
23953;BME280;12163;49.316;6.092;2023-03-25T09:16:44;98832.88;;;9.65;71.19
23953;BME280;12163;49.316;6.092;2023-03-25T09:19:11;98805.94;;;9.65;71.36
23953;BME280;12163;49.316;6.092;2023-03-25T09:21:37;98801.78;;;9.86;71.93
23953;BME280;12163;49.316;6.092;2023-03-25T09:24:06;98795.81;;;10.16;73.15
23953;BME280;12163;49.316;6.092;2023-03-25T09:26:33;98800.38;;;10.56;73.28
23953;BME280;12163;49.316;6.092;2023-03-25T09:29:00;98796.28;;;10.94;70.93
23953;BME280;12163;49.316;6.092;2023-03-25T09:31:26;98796.78;;;11.18;70.14
23953;BME280;12163;49.316;6.092;2023-03-25T09:33:53;98782.94;;;11.33;69.05
23953;BME280;12163;49.316;6.092;2023-03-25T09:36:20;98797.47;;;11.45;68.26
23953;BME280;12163;49.316;6.092;2023-03-25T09:38:46;98798.59;;;11.53;68.82
23953;BME280;12163;49.316;6.092;2023-03-25T09:41:25;98796.47;;;11.63;67.44
23953;BME280;12163;49.316;6.092;2023-03-25T09:44:14;98791.81;;;11.85;67.10
23953;BME280;12163;49.316;6.092;2023-03-25T09:46:44;98807.50;;;12.05;65.98
23953;BME280;12163;49.316;6.092;2023-03-25T09:49:18;98783.97;;;12.14;63.29
23953;BME280;12163;49.316;6.092;2023-03-25T09:51:47;98805.97;;;12.21;62.91
23953;BME280;12163;49.316;6.092;2023-03-25T09:54:21;98782.25;;;12.18;61.15
23953;BME280;12163;49.316;6.092;2023-03-25T09:56:50;98794.03;;;12.22;61.63
23953;BME280;12163;49.316;6.092;2023-03-25T09:59:20;98792.97;;;12.40;62.00
23953;BME280;12163;49.316;6.092;2023-03-25T10:02:03;98797.63;;;12.57;60.63
23953;BME280;12163;49.316;6.092;2023-03-25T10:10:18;98802.91;;;12.87;58.42
23953;BME280;12163;49.316;6.092;2023-03-25T10:15:33;98816.66;;;12.99;57.62
23953;BME280;12163;49.316;6.092;2023-03-25T10:23:31;98819.66;;;13.06;57.90
23953;BME280;12163;49.316;6.092;2023-03-25T10:26:13;98811.41;;;13.11;57.11
23953;BME280;12163;49.316;6.092;2023-03-25T10:28:49;98812.19;;;13.20;56.14
23953;BME280;12163;49.316;6.092;2023-03-25T10:31:22;98838.47;;;13.28;55.77
23953;BME280;12163;49.316;6.092;2023-03-25T10:33:56;98820.78;;;13.22;54.28
23953;BME280;12163;49.316;6.092;2023-03-25T10:36:33;98822.72;;;13.13;54.28
23953;BME280;12163;49.316;6.092;2023-03-25T10:39:04;98810.28;;;13.12;54.12
23953;BME280;12163;49.316;6.092;2023-03-25T10:41:37;98822.38;;;13.23;55.84
23953;BME280;12163;49.316;6.092;2023-03-25T10:44:11;98822.22;;;13.28;51.55
23953;BME280;12163;49.316;6.092;2023-03-25T10:46:46;98826.22;;;13.48;52.58
23953;BME280;12163;49.316;6.092;2023-03-25T10:49:26;98814.06;;;13.62;51.63
23953;BME280;12163;49.316;6.092;2023-03-25T10:51:53;98847.41;;;13.54;50.05
23953;BME280;12163;49.316;6.092;2023-03-25T10:54:26;98857.78;;;13.35;49.86
23953;BME280;12163;49.316;6.092;2023-03-25T10:56:57;98854.25;;;13.26;50.88
23953;BME280;12163;49.316;6.092;2023-03-25T11:02:21;98853.63;;;13.29;50.75
23953;BME280;12163;49.316;6.092;2023-03-25T11:04:55;98838.47;;;13.28;51.61
23953;BME280;12163;49.316;6.092;2023-03-25T11:07:27;98844.84;;;13.49;51.41
23953;BME280;12163;49.316;6.092;2023-03-25T11:10:25;98849.94;;;13.67;51.02
23953;BME280;12163;49.316;6.092;2023-03-25T11:12:53;98859.47;;;13.73;49.48
23953;BME280;12163;49.316;6.092;2023-03-25T11:15:25;98861.72;;;13.63;49.17
23953;BME280;12163;49.316;6.092;2023-03-25T11:20:44;98858.69;;;13.73;48.83
23953;BME280;12163;49.316;6.092;2023-03-25T11:25:46;98861.84;;;13.83;48.87
23953;BME280;12163;49.316;6.092;2023-03-25T11:28:31;98868.19;;;13.96;47.40
23953;BME280;12163;49.316;6.092;2023-03-25T11:33:37;98857.03;;;13.97;47.62
23953;BME280;12163;49.316;6.092;2023-03-25T11:38:46;98851.25;;;14.16;48.20
23953;BME280;12163;49.316;6.092;2023-03-25T11:41:16;98850.06;;;14.34;48.26
23953;BME280;12163;49.316;6.092;2023-03-25T11:43:47;98855.16;;;14.44;47.48
23953;BME280;12163;49.316;6.092;2023-03-25T11:46:19;98858.88;;;14.31;47.98
23953;BME280;12163;49.316;6.092;2023-03-25T11:48:47;98863.41;;;13.93;48.68
23953;BME280;12163;49.316;6.092;2023-03-25T11:51:24;98872.25;;;13.64;48.56
23953;BME280;12163;49.316;6.092;2023-03-25T11:53:56;98862.56;;;13.47;48.74
23953;BME280;12163;49.316;6.092;2023-03-25T11:56:31;98862.56;;;13.38;49.55
23953;BME280;12163;49.316;6.092;2023-03-25T11:59:00;98868.16;;;13.33;50.70
23953;BME280;12163;49.316;6.092;2023-03-25T12:01:40;98858.91;;;13.34;50.33
23953;BME280;12163;49.316;6.092;2023-03-25T12:04:23;98875.28;;;13.46;50.13
23953;BME280;12163;49.316;6.092;2023-03-25T12:09:24;98853.75;;;13.66;49.03
23953;BME280;12163;49.316;6.092;2023-03-25T12:15:15;98887.53;;;13.86;49.20
23953;BME280;12163;49.316;6.092;2023-03-25T12:17:50;98851.00;;;13.83;50.16
23953;BME280;12163;49.316;6.092;2023-03-25T12:20:26;98851.16;;;13.87;50.64
23953;BME280;12163;49.316;6.092;2023-03-25T12:23:01;98835.34;;;13.89;50.87
23953;BME280;12163;49.316;6.092;2023-03-25T12:34:08;98857.75;;;13.01;54.74
23953;BME280;12163;49.316;6.092;2023-03-25T12:36:50;98850.22;;;12.90;54.79
23953;BME280;12163;49.316;6.092;2023-03-25T12:47:41;98828.91;;;13.48;52.51
23953;BME280;12163;49.316;6.092;2023-03-25T12:50:33;98841.44;;;13.86;50.98
23953;BME280;12163;49.316;6.092;2023-03-25T12:53:11;98842.31;;;14.07;49.90
23953;BME280;12163;49.316;6.092;2023-03-25T12:55:48;98833.63;;;14.30;48.31
23953;BME280;12163;49.316;6.092;2023-03-25T12:58:34;98824.75;;;14.50;48.07
23953;BME280;12163;49.316;6.092;2023-03-25T13:01:42;98834.81;;;14.50;47.97
23953;BME280;12163;49.316;6.092;2023-03-25T13:12:47;98819.31;;;14.13;48.27
23953;BME280;12163;49.316;6.092;2023-03-25T13:15:27;98796.97;;;14.16;48.83
23953;BME280;12163;49.316;6.092;2023-03-25T13:18:00;98798.31;;;14.39;48.62
23953;BME280;12163;49.316;6.092;2023-03-25T13:20:33;98796.63;;;14.55;48.42
23953;BME280;12163;49.316;6.092;2023-03-25T13:23:05;98786.50;;;14.64;47.86
23953;BME280;12163;49.316;6.092;2023-03-25T13:28:11;98794.56;;;14.52;45.35
23953;BME280;12163;49.316;6.092;2023-03-25T13:30:41;98788.75;;;14.62;44.74
23953;BME280;12163;49.316;6.092;2023-03-25T13:33:23;98782.09;;;14.80;44.33
23953;BME280;12163;49.316;6.092;2023-03-25T13:35:55;98774.13;;;14.95;44.44
23953;BME280;12163;49.316;6.092;2023-03-25T13:38:33;98785.66;;;15.13;44.02
23953;BME280;12163;49.316;6.092;2023-03-25T13:41:11;98767.56;;;15.17;44.72
23953;BME280;12163;49.316;6.092;2023-03-25T13:44:17;98796.41;;;15.29;44.43
23953;BME280;12163;49.316;6.092;2023-03-25T13:46:49;98793.06;;;15.44;43.04
23953;BME280;12163;49.316;6.092;2023-03-25T13:51:47;98775.94;;;15.76;43.07
23953;BME280;12163;49.316;6.092;2023-03-25T13:54:38;98764.78;;;16.14;43.13
23953;BME280;12163;49.316;6.092;2023-03-25T13:57:26;98779.84;;;16.71;41.33
23953;BME280;12163;49.316;6.092;2023-03-25T14:00:09;98760.38;;;17.24;40.40
23953;BME280;12163;49.316;6.092;2023-03-25T14:03:20;98753.44;;;17.26;39.01
23953;BME280;12163;49.316;6.092;2023-03-25T14:08:49;98752.63;;;17.26;39.30
23953;BME280;12163;49.316;6.092;2023-03-25T14:11:26;98759.81;;;17.58;39.68
23953;BME280;12163;49.316;6.092;2023-03-25T14:13:57;98749.66;;;17.58;38.61
23953;BME280;12163;49.316;6.092;2023-03-25T14:16:33;98760.72;;;17.93;39.52
23953;BME280;12163;49.316;6.092;2023-03-25T14:19:04;98756.03;;;18.24;37.81
23953;BME280;12163;49.316;6.092;2023-03-25T14:24:32;98757.44;;;18.49;36.94
23953;BME280;12163;49.316;6.092;2023-03-25T14:29:37;98741.53;;;18.70;37.52
23953;BME280;12163;49.316;6.092;2023-03-25T14:34:35;98759.47;;;19.05;38.88
23953;BME280;12163;49.316;6.092;2023-03-25T14:44:39;98776.47;;;18.61;39.15
23953;BME280;12163;49.316;6.092;2023-03-25T14:52:31;98776.09;;;18.63;40.63
23953;BME280;12163;49.316;6.092;2023-03-25T14:55:04;98757.75;;;18.63;40.41
23953;BME280;12163;49.316;6.092;2023-03-25T14:57:38;98751.81;;;18.76;40.94
23953;BME280;12163;49.316;6.092;2023-03-25T15:00:06;98752.63;;;18.96;40.23
23953;BME280;12163;49.316;6.092;2023-03-25T15:02:40;98754.00;;;19.05;39.91
23953;BME280;12163;49.316;6.092;2023-03-25T15:05:19;98756.03;;;19.27;40.19
23953;BME280;12163;49.316;6.092;2023-03-25T15:08:13;98757.72;;;19.73;38.06
23953;BME280;12163;49.316;6.092;2023-03-25T15:10:47;98746.63;;;20.08;38.15
23953;BME280;12163;49.316;6.092;2023-03-25T15:23:42;98747.88;;;20.36;36.43
23953;BME280;12163;49.316;6.092;2023-03-25T15:26:22;98760.19;;;20.23;36.34
23953;BME280;12163;49.316;6.092;2023-03-25T15:31:48;98764.47;;;17.73;40.17
23953;BME280;12163;49.316;6.092;2023-03-25T15:34:28;98765.75;;;16.81;42.42
23953;BME280;12163;49.316;6.092;2023-03-25T15:42:15;98780.56;;;15.11;48.63
23953;BME280;12163;49.316;6.092;2023-03-25T15:45:08;98807.75;;;14.62;51.86
23953;BME280;12163;49.316;6.092;2023-03-25T15:51:04;98887.09;;;13.50;57.71
23953;BME280;12163;49.316;6.092;2023-03-25T15:56:23;98862.19;;;11.72;67.17
23953;BME280;12163;49.316;6.092;2023-03-25T15:58:57;98843.31;;;11.80;66.90